sensor_id;sensor_type;location;lat;lon;timestamp;P1;durP1;ratioP1;P2;durP2;ratioP2
78960;SDS011;68362;45.970;12.646;2023-06-14T00:00:34;6.30;;;3.42;;
78960;SDS011;68362;45.970;12.646;2023-06-14T00:01:56;4.53;;;3.33;;
78960;SDS011;68362;45.970;12.646;2023-06-14T00:02:58;4.85;;;3.20;;
78960;SDS011;68362;45.970;12.646;2023-06-14T00:04:01;3.75;;;3.25;;
78960;SDS011;68362;45.970;12.646;2023-06-14T00:05:03;4.10;;;3.38;;
78960;SDS011;68362;45.970;12.646;2023-06-14T00:06:07;4.78;;;3.05;;
78960;SDS011;68362;45.970;12.646;2023-06-14T00:07:09;5.57;;;4.50;;
78960;SDS011;68362;45.970;12.646;2023-06-14T00:08:15;4.13;;;3.13;;
78960;SDS011;68362;45.970;12.646;2023-06-14T00:09:17;5.53;;;3.55;;
78960;SDS011;68362;45.970;12.646;2023-06-14T00:10:20;4.00;;;3.60;;
78960;SDS011;68362;45.970;12.646;2023-06-14T00:11:22;3.60;;;3.22;;
78960;SDS011;68362;45.970;12.646;2023-06-14T00:12:24;4.22;;;3.38;;
78960;SDS011;68362;45.970;12.646;2023-06-14T00:13:26;4.47;;;3.30;;
78960;SDS011;68362;45.970;12.646;2023-06-14T00:15:31;4.45;;;3.33;;
78960;SDS011;68362;45.970;12.646;2023-06-14T00:16:33;5.70;;;2.92;;
78960;SDS011;68362;45.970;12.646;2023-06-14T00:17:36;4.32;;;3.05;;
78960;SDS011;68362;45.970;12.646;2023-06-14T00:18:41;5.57;;;3.10;;
78960;SDS011;68362;45.970;12.646;2023-06-14T00:19:43;4.97;;;3.65;;
78960;SDS011;68362;45.970;12.646;2023-06-14T00:20:45;6.18;;;4.00;;
78960;SDS011;68362;45.970;12.646;2023-06-14T00:21:48;6.15;;;3.58;;
78960;SDS011;68362;45.970;12.646;2023-06-14T00:22:50;5.03;;;4.07;;
78960;SDS011;68362;45.970;12.646;2023-06-14T00:23:53;5.35;;;4.07;;
78960;SDS011;68362;45.970;12.646;2023-06-14T00:24:56;4.60;;;3.55;;
78960;SDS011;68362;45.970;12.646;2023-06-14T00:25:59;5.82;;;4.18;;
78960;SDS011;68362;45.970;12.646;2023-06-14T00:27:01;6.82;;;3.88;;
78960;SDS011;68362;45.970;12.646;2023-06-14T00:28:03;4.22;;;3.78;;
78960;SDS011;68362;45.970;12.646;2023-06-14T00:29:05;4.50;;;3.63;;
78960;SDS011;68362;45.970;12.646;2023-06-14T00:30:08;4.55;;;3.83;;
78960;SDS011;68362;45.970;12.646;2023-06-14T00:31:10;4.00;;;3.60;;
78960;SDS011;68362;45.970;12.646;2023-06-14T00:32:12;5.45;;;4.13;;
78960;SDS011;68362;45.970;12.646;2023-06-14T00:33:15;4.88;;;3.58;;
78960;SDS011;68362;45.970;12.646;2023-06-14T00:34:17;4.90;;;4.18;;
78960;SDS011;68362;45.970;12.646;2023-06-14T00:35:19;5.35;;;4.22;;
78960;SDS011;68362;45.970;12.646;2023-06-14T00:36:21;6.05;;;4.93;;
78960;SDS011;68362;45.970;12.646;2023-06-14T00:37:23;8.27;;;4.07;;
78960;SDS011;68362;45.970;12.646;2023-06-14T00:38:25;4.72;;;3.97;;
78960;SDS011;68362;45.970;12.646;2023-06-14T00:39:28;5.88;;;4.28;;
78960;SDS011;68362;45.970;12.646;2023-06-14T00:40:30;4.35;;;3.78;;
78960;SDS011;68362;45.970;12.646;2023-06-14T00:41:32;5.28;;;4.53;;
78960;SDS011;68362;45.970;12.646;2023-06-14T00:42:34;4.65;;;4.15;;
78960;SDS011;68362;45.970;12.646;2023-06-14T00:43:36;6.03;;;4.05;;
78960;SDS011;68362;45.970;12.646;2023-06-14T00:44:38;5.18;;;3.90;;
78960;SDS011;68362;45.970;12.646;2023-06-14T00:45:40;4.97;;;3.75;;
78960;SDS011;68362;45.970;12.646;2023-06-14T00:46:44;4.78;;;3.85;;
78960;SDS011;68362;45.970;12.646;2023-06-14T00:47:47;5.00;;;4.50;;
78960;SDS011;68362;45.970;12.646;2023-06-14T00:48:55;6.53;;;4.15;;
78960;SDS011;68362;45.970;12.646;2023-06-14T00:49:59;5.53;;;3.72;;
78960;SDS011;68362;45.970;12.646;2023-06-14T00:51:02;6.30;;;4.20;;
78960;SDS011;68362;45.970;12.646;2023-06-14T00:52:06;4.72;;;4.15;;
78960;SDS011;68362;45.970;12.646;2023-06-14T00:53:08;6.80;;;4.82;;
78960;SDS011;68362;45.970;12.646;2023-06-14T00:54:10;5.43;;;3.80;;
78960;SDS011;68362;45.970;12.646;2023-06-14T00:55:12;4.63;;;4.07;;
78960;SDS011;68362;45.970;12.646;2023-06-14T00:56:15;5.78;;;3.80;;
78960;SDS011;68362;45.970;12.646;2023-06-14T00:57:17;6.03;;;3.70;;
78960;SDS011;68362;45.970;12.646;2023-06-14T00:58:21;4.22;;;3.80;;
78960;SDS011;68362;45.970;12.646;2023-06-14T00:59:24;10.27;;;4.65;;
78960;SDS011;68362;45.970;12.646;2023-06-14T01:00:27;6.00;;;4.28;;
78960;SDS011;68362;45.970;12.646;2023-06-14T01:01:30;5.70;;;3.92;;
78960;SDS011;68362;45.970;12.646;2023-06-14T01:02:37;4.25;;;3.67;;
78960;SDS011;68362;45.970;12.646;2023-06-14T01:03:40;6.30;;;3.92;;
78960;SDS011;68362;45.970;12.646;2023-06-14T01:04:45;4.40;;;4.00;;
78960;SDS011;68362;45.970;12.646;2023-06-14T01:05:53;4.85;;;4.18;;
78960;SDS011;68362;45.970;12.646;2023-06-14T01:11:24;6.90;;;4.40;;
78960;SDS011;68362;45.970;12.646;2023-06-14T01:13:57;5.47;;;4.18;;
78960;SDS011;68362;45.970;12.646;2023-06-14T01:15:04;5.35;;;4.03;;
78960;SDS011;68362;45.970;12.646;2023-06-14T01:16:07;5.32;;;4.18;;
78960;SDS011;68362;45.970;12.646;2023-06-14T01:18:18;7.85;;;4.63;;
78960;SDS011;68362;45.970;12.646;2023-06-14T01:19:20;5.88;;;4.32;;
78960;SDS011;68362;45.970;12.646;2023-06-14T01:20:28;5.47;;;4.03;;
78960;SDS011;68362;45.970;12.646;2023-06-14T01:21:31;5.45;;;4.47;;
78960;SDS011;68362;45.970;12.646;2023-06-14T01:22:35;5.25;;;3.80;;
78960;SDS011;68362;45.970;12.646;2023-06-14T01:23:38;5.60;;;4.60;;
78960;SDS011;68362;45.970;12.646;2023-06-14T01:24:40;5.68;;;4.45;;
78960;SDS011;68362;45.970;12.646;2023-06-14T01:25:47;4.93;;;4.00;;
78960;SDS011;68362;45.970;12.646;2023-06-14T01:26:54;4.93;;;4.35;;
78960;SDS011;68362;45.970;12.646;2023-06-14T01:28:01;6.20;;;3.95;;
78960;SDS011;68362;45.970;12.646;2023-06-14T01:29:12;5.15;;;4.65;;
78960;SDS011;68362;45.970;12.646;2023-06-14T01:30:19;5.05;;;4.32;;
78960;SDS011;68362;45.970;12.646;2023-06-14T01:31:23;4.07;;;3.67;;
78960;SDS011;68362;45.970;12.646;2023-06-14T01:32:26;6.93;;;4.30;;
78960;SDS011;68362;45.970;12.646;2023-06-14T01:33:30;4.82;;;4.05;;
78960;SDS011;68362;45.970;12.646;2023-06-14T01:34:34;5.68;;;4.28;;
78960;SDS011;68362;45.970;12.646;2023-06-14T01:35:36;5.80;;;3.80;;
78960;SDS011;68362;45.970;12.646;2023-06-14T01:36:39;5.38;;;4.32;;
78960;SDS011;68362;45.970;12.646;2023-06-14T01:37:42;5.38;;;4.45;;
78960;SDS011;68362;45.970;12.646;2023-06-14T01:39:48;5.22;;;4.55;;
78960;SDS011;68362;45.970;12.646;2023-06-14T01:40:53;6.38;;;3.95;;
78960;SDS011;68362;45.970;12.646;2023-06-14T01:41:57;4.82;;;4.22;;
78960;SDS011;68362;45.970;12.646;2023-06-14T01:43:00;6.30;;;4.35;;
78960;SDS011;68362;45.970;12.646;2023-06-14T01:44:03;4.57;;;3.42;;
78960;SDS011;68362;45.970;12.646;2023-06-14T01:45:07;5.20;;;4.30;;
78960;SDS011;68362;45.970;12.646;2023-06-14T01:46:11;5.88;;;4.47;;
78960;SDS011;68362;45.970;12.646;2023-06-14T01:47:14;5.88;;;4.30;;
78960;SDS011;68362;45.970;12.646;2023-06-14T01:48:17;6.43;;;4.43;;
78960;SDS011;68362;45.970;12.646;2023-06-14T01:49:20;5.47;;;4.47;;
78960;SDS011;68362;45.970;12.646;2023-06-14T01:50:22;5.85;;;3.72;;
78960;SDS011;68362;45.970;12.646;2023-06-14T01:51:24;5.78;;;4.22;;
78960;SDS011;68362;45.970;12.646;2023-06-14T01:52:26;5.00;;;4.50;;
78960;SDS011;68362;45.970;12.646;2023-06-14T01:53:29;4.63;;;3.83;;
78960;SDS011;68362;45.970;12.646;2023-06-14T01:54:31;6.28;;;4.18;;
78960;SDS011;68362;45.970;12.646;2023-06-14T01:55:33;4.95;;;3.72;;
78960;SDS011;68362;45.970;12.646;2023-06-14T01:56:38;5.15;;;4.40;;
78960;SDS011;68362;45.970;12.646;2023-06-14T01:57:41;6.78;;;5.30;;
78960;SDS011;68362;45.970;12.646;2023-06-14T01:58:43;5.50;;;4.13;;
78960;SDS011;68362;45.970;12.646;2023-06-14T01:59:45;5.18;;;4.68;;
78960;SDS011;68362;45.970;12.646;2023-06-14T02:00:50;4.97;;;4.35;;
78960;SDS011;68362;45.970;12.646;2023-06-14T02:01:53;4.82;;;4.00;;
78960;SDS011;68362;45.970;12.646;2023-06-14T02:02:55;5.55;;;4.82;;
78960;SDS011;68362;45.970;12.646;2023-06-14T02:03:57;5.13;;;4.35;;
78960;SDS011;68362;45.970;12.646;2023-06-14T02:04:59;5.68;;;4.30;;
78960;SDS011;68362;45.970;12.646;2023-06-14T02:06:02;5.07;;;4.20;;
78960;SDS011;68362;45.970;12.646;2023-06-14T02:07:04;6.15;;;4.40;;
78960;SDS011;68362;45.970;12.646;2023-06-14T02:08:07;4.80;;;3.75;;
78960;SDS011;68362;45.970;12.646;2023-06-14T02:09:09;5.13;;;4.50;;
78960;SDS011;68362;45.970;12.646;2023-06-14T02:10:11;7.07;;;4.55;;
78960;SDS011;68362;45.970;12.646;2023-06-14T02:11:14;5.88;;;5.03;;
78960;SDS011;68362;45.970;12.646;2023-06-14T02:12:16;4.90;;;4.00;;
78960;SDS011;68362;45.970;12.646;2023-06-14T02:13:19;6.22;;;4.60;;
78960;SDS011;68362;45.970;12.646;2023-06-14T02:14:21;4.70;;;3.97;;
78960;SDS011;68362;45.970;12.646;2023-06-14T02:15:24;7.57;;;4.43;;
78960;SDS011;68362;45.970;12.646;2023-06-14T02:16:35;4.72;;;3.85;;
78960;SDS011;68362;45.970;12.646;2023-06-14T02:17:37;5.43;;;4.53;;
78960;SDS011;68362;45.970;12.646;2023-06-14T02:18:40;8.48;;;5.25;;
78960;SDS011;68362;45.970;12.646;2023-06-14T02:19:42;6.63;;;5.32;;
78960;SDS011;68362;45.970;12.646;2023-06-14T02:20:44;6.03;;;5.05;;
78960;SDS011;68362;45.970;12.646;2023-06-14T02:21:46;6.95;;;5.35;;
78960;SDS011;68362;45.970;12.646;2023-06-14T02:22:49;6.28;;;4.45;;
78960;SDS011;68362;45.970;12.646;2023-06-14T02:23:51;4.60;;;3.88;;
78960;SDS011;68362;45.970;12.646;2023-06-14T02:24:53;5.30;;;4.32;;
78960;SDS011;68362;45.970;12.646;2023-06-14T02:26:03;5.75;;;3.95;;
78960;SDS011;68362;45.970;12.646;2023-06-14T02:27:05;5.43;;;4.82;;
78960;SDS011;68362;45.970;12.646;2023-06-14T02:28:08;6.00;;;3.97;;
78960;SDS011;68362;45.970;12.646;2023-06-14T02:29:10;3.97;;;3.58;;
78960;SDS011;68362;45.970;12.646;2023-06-14T02:30:14;5.43;;;4.63;;
78960;SDS011;68362;45.970;12.646;2023-06-14T02:31:18;9.75;;;4.82;;
78960;SDS011;68362;45.970;12.646;2023-06-14T02:32:20;5.72;;;4.45;;
78960;SDS011;68362;45.970;12.646;2023-06-14T02:33:22;5.70;;;4.47;;
78960;SDS011;68362;45.970;12.646;2023-06-14T02:34:24;6.50;;;4.10;;
78960;SDS011;68362;45.970;12.646;2023-06-14T02:35:27;5.47;;;4.35;;
78960;SDS011;68362;45.970;12.646;2023-06-14T02:36:29;6.05;;;4.72;;
78960;SDS011;68362;45.970;12.646;2023-06-14T02:38:34;5.68;;;4.65;;
78960;SDS011;68362;45.970;12.646;2023-06-14T02:39:36;5.40;;;4.20;;
78960;SDS011;68362;45.970;12.646;2023-06-14T02:40:38;4.95;;;3.70;;
78960;SDS011;68362;45.970;12.646;2023-06-14T02:41:40;4.90;;;4.35;;
78960;SDS011;68362;45.970;12.646;2023-06-14T02:42:42;5.88;;;4.53;;
78960;SDS011;68362;45.970;12.646;2023-06-14T02:43:45;5.32;;;4.07;;
78960;SDS011;68362;45.970;12.646;2023-06-14T02:44:47;5.88;;;5.28;;
78960;SDS011;68362;45.970;12.646;2023-06-14T02:45:52;5.80;;;4.57;;
78960;SDS011;68362;45.970;12.646;2023-06-14T02:46:54;7.88;;;5.30;;
78960;SDS011;68362;45.970;12.646;2023-06-14T02:47:57;6.18;;;4.90;;
78960;SDS011;68362;45.970;12.646;2023-06-14T02:48:59;5.53;;;5.00;;
78960;SDS011;68362;45.970;12.646;2023-06-14T02:50:02;5.05;;;3.80;;
78960;SDS011;68362;45.970;12.646;2023-06-14T02:51:04;5.93;;;4.93;;
78960;SDS011;68362;45.970;12.646;2023-06-14T02:52:08;6.68;;;5.25;;
78960;SDS011;68362;45.970;12.646;2023-06-14T02:54:13;10.57;;;4.70;;
78960;SDS011;68362;45.970;12.646;2023-06-14T02:55:16;11.60;;;4.85;;
78960;SDS011;68362;45.970;12.646;2023-06-14T02:56:18;7.63;;;4.93;;
78960;SDS011;68362;45.970;12.646;2023-06-14T02:57:21;5.57;;;4.40;;
78960;SDS011;68362;45.970;12.646;2023-06-14T02:58:24;6.13;;;4.95;;
78960;SDS011;68362;45.970;12.646;2023-06-14T02:59:26;6.40;;;4.45;;
78960;SDS011;68362;45.970;12.646;2023-06-14T03:00:29;6.68;;;5.38;;
78960;SDS011;68362;45.970;12.646;2023-06-14T03:01:32;5.57;;;4.82;;
78960;SDS011;68362;45.970;12.646;2023-06-14T03:02:40;7.05;;;5.35;;
78960;SDS011;68362;45.970;12.646;2023-06-14T03:03:44;6.25;;;4.50;;
78960;SDS011;68362;45.970;12.646;2023-06-14T03:04:47;6.45;;;4.60;;
78960;SDS011;68362;45.970;12.646;2023-06-14T03:05:49;6.57;;;4.90;;
78960;SDS011;68362;45.970;12.646;2023-06-14T03:06:52;9.20;;;4.97;;
78960;SDS011;68362;45.970;12.646;2023-06-14T03:07:55;7.85;;;5.45;;
78960;SDS011;68362;45.970;12.646;2023-06-14T03:08:57;6.68;;;5.93;;
78960;SDS011;68362;45.970;12.646;2023-06-14T03:10:07;6.18;;;5.05;;
78960;SDS011;68362;45.970;12.646;2023-06-14T03:11:11;5.95;;;4.43;;
78960;SDS011;68362;45.970;12.646;2023-06-14T03:12:13;8.45;;;4.85;;
78960;SDS011;68362;45.970;12.646;2023-06-14T03:13:16;6.30;;;4.95;;
78960;SDS011;68362;45.970;12.646;2023-06-14T03:14:18;6.65;;;4.97;;
78960;SDS011;68362;45.970;12.646;2023-06-14T03:15:20;6.85;;;5.00;;
78960;SDS011;68362;45.970;12.646;2023-06-14T03:16:25;6.07;;;4.90;;
78960;SDS011;68362;45.970;12.646;2023-06-14T03:17:30;6.78;;;4.90;;
78960;SDS011;68362;45.970;12.646;2023-06-14T03:18:35;6.93;;;4.30;;
78960;SDS011;68362;45.970;12.646;2023-06-14T03:19:38;6.47;;;5.55;;
78960;SDS011;68362;45.970;12.646;2023-06-14T03:20:43;6.43;;;4.82;;
78960;SDS011;68362;45.970;12.646;2023-06-14T03:21:47;6.53;;;4.90;;
78960;SDS011;68362;45.970;12.646;2023-06-14T03:22:49;7.75;;;5.35;;
78960;SDS011;68362;45.970;12.646;2023-06-14T03:23:51;5.45;;;4.57;;
78960;SDS011;68362;45.970;12.646;2023-06-14T03:24:54;6.22;;;5.32;;
78960;SDS011;68362;45.970;12.646;2023-06-14T03:25:57;7.07;;;5.32;;
78960;SDS011;68362;45.970;12.646;2023-06-14T03:26:59;5.68;;;4.70;;
78960;SDS011;68362;45.970;12.646;2023-06-14T03:28:01;9.45;;;5.53;;
78960;SDS011;68362;45.970;12.646;2023-06-14T03:29:04;6.03;;;5.30;;
78960;SDS011;68362;45.970;12.646;2023-06-14T03:30:06;11.05;;;5.35;;
78960;SDS011;68362;45.970;12.646;2023-06-14T03:32:11;8.85;;;5.28;;
78960;SDS011;68362;45.970;12.646;2023-06-14T03:33:13;6.78;;;4.57;;
78960;SDS011;68362;45.970;12.646;2023-06-14T03:34:17;5.97;;;5.07;;
78960;SDS011;68362;45.970;12.646;2023-06-14T03:35:19;6.40;;;5.47;;
78960;SDS011;68362;45.970;12.646;2023-06-14T03:36:21;6.20;;;5.13;;
78960;SDS011;68362;45.970;12.646;2023-06-14T03:37:24;6.78;;;5.85;;
78960;SDS011;68362;45.970;12.646;2023-06-14T03:38:27;6.65;;;5.20;;
78960;SDS011;68362;45.970;12.646;2023-06-14T03:39:29;5.90;;;5.20;;
78960;SDS011;68362;45.970;12.646;2023-06-14T03:40:30;7.22;;;5.13;;
78960;SDS011;68362;45.970;12.646;2023-06-14T03:41:33;6.03;;;5.38;;
78960;SDS011;68362;45.970;12.646;2023-06-14T03:42:35;6.22;;;4.85;;
78960;SDS011;68362;45.970;12.646;2023-06-14T03:43:37;6.60;;;5.07;;
78960;SDS011;68362;45.970;12.646;2023-06-14T03:44:39;6.13;;;4.75;;
78960;SDS011;68362;45.970;12.646;2023-06-14T03:45:41;5.72;;;5.00;;
78960;SDS011;68362;45.970;12.646;2023-06-14T03:46:44;5.75;;;4.95;;
78960;SDS011;68362;45.970;12.646;2023-06-14T03:47:47;6.63;;;5.57;;
78960;SDS011;68362;45.970;12.646;2023-06-14T03:48:49;8.50;;;5.78;;
78960;SDS011;68362;45.970;12.646;2023-06-14T03:49:51;10.23;;;4.80;;
78960;SDS011;68362;45.970;12.646;2023-06-14T03:50:54;5.82;;;4.53;;
78960;SDS011;68362;45.970;12.646;2023-06-14T03:52:00;5.97;;;5.05;;
78960;SDS011;68362;45.970;12.646;2023-06-14T03:53:04;7.20;;;6.03;;
78960;SDS011;68362;45.970;12.646;2023-06-14T03:54:06;5.50;;;4.72;;
78960;SDS011;68362;45.970;12.646;2023-06-14T03:55:29;6.03;;;4.93;;
78960;SDS011;68362;45.970;12.646;2023-06-14T03:56:35;6.80;;;5.05;;
78960;SDS011;68362;45.970;12.646;2023-06-14T03:57:38;6.05;;;4.70;;
78960;SDS011;68362;45.970;12.646;2023-06-14T03:58:41;5.30;;;4.63;;
78960;SDS011;68362;45.970;12.646;2023-06-14T03:59:43;13.77;;;5.05;;
78960;SDS011;68362;45.970;12.646;2023-06-14T04:00:45;6.47;;;5.47;;
78960;SDS011;68362;45.970;12.646;2023-06-14T04:01:47;9.05;;;4.80;;
78960;SDS011;68362;45.970;12.646;2023-06-14T04:02:50;6.72;;;5.78;;
78960;SDS011;68362;45.970;12.646;2023-06-14T04:03:53;6.45;;;4.70;;
78960;SDS011;68362;45.970;12.646;2023-06-14T04:04:55;6.10;;;4.72;;
78960;SDS011;68362;45.970;12.646;2023-06-14T04:05:57;6.00;;;5.10;;
78960;SDS011;68362;45.970;12.646;2023-06-14T04:07:01;6.50;;;4.90;;
78960;SDS011;68362;45.970;12.646;2023-06-14T04:08:05;7.90;;;6.00;;
78960;SDS011;68362;45.970;12.646;2023-06-14T04:09:10;5.13;;;4.63;;
78960;SDS011;68362;45.970;12.646;2023-06-14T04:10:12;6.65;;;4.80;;
78960;SDS011;68362;45.970;12.646;2023-06-14T04:11:15;6.30;;;5.55;;
78960;SDS011;68362;45.970;12.646;2023-06-14T04:12:17;5.85;;;5.07;;
78960;SDS011;68362;45.970;12.646;2023-06-14T04:13:19;6.25;;;4.70;;
78960;SDS011;68362;45.970;12.646;2023-06-14T04:14:21;6.93;;;5.20;;
78960;SDS011;68362;45.970;12.646;2023-06-14T04:15:23;6.47;;;5.10;;
78960;SDS011;68362;45.970;12.646;2023-06-14T04:17:28;6.82;;;5.22;;
78960;SDS011;68362;45.970;12.646;2023-06-14T04:18:30;6.00;;;5.40;;
78960;SDS011;68362;45.970;12.646;2023-06-14T04:19:32;5.68;;;4.30;;
78960;SDS011;68362;45.970;12.646;2023-06-14T04:20:35;6.22;;;4.80;;
78960;SDS011;68362;45.970;12.646;2023-06-14T04:21:37;6.43;;;4.78;;
78960;SDS011;68362;45.970;12.646;2023-06-14T04:22:39;8.60;;;5.05;;
78960;SDS011;68362;45.970;12.646;2023-06-14T04:23:42;5.32;;;4.68;;
78960;SDS011;68362;45.970;12.646;2023-06-14T04:24:46;9.00;;;5.18;;
78960;SDS011;68362;45.970;12.646;2023-06-14T04:26:01;7.13;;;5.20;;
78960;SDS011;68362;45.970;12.646;2023-06-14T04:27:04;6.80;;;4.53;;
78960;SDS011;68362;45.970;12.646;2023-06-14T04:28:06;6.25;;;4.68;;
78960;SDS011;68362;45.970;12.646;2023-06-14T04:29:11;5.60;;;4.10;;
78960;SDS011;68362;45.970;12.646;2023-06-14T04:30:18;4.95;;;4.30;;
78960;SDS011;68362;45.970;12.646;2023-06-14T04:31:20;5.47;;;4.80;;
78960;SDS011;68362;45.970;12.646;2023-06-14T04:32:26;5.80;;;4.15;;
78960;SDS011;68362;45.970;12.646;2023-06-14T04:33:28;6.85;;;5.10;;
78960;SDS011;68362;45.970;12.646;2023-06-14T04:34:30;8.30;;;4.68;;
78960;SDS011;68362;45.970;12.646;2023-06-14T04:35:34;6.85;;;4.70;;
78960;SDS011;68362;45.970;12.646;2023-06-14T04:36:37;5.13;;;4.43;;
78960;SDS011;68362;45.970;12.646;2023-06-14T04:37:40;6.20;;;4.47;;
78960;SDS011;68362;45.970;12.646;2023-06-14T04:38:43;5.07;;;4.38;;
78960;SDS011;68362;45.970;12.646;2023-06-14T04:39:46;7.00;;;4.47;;
78960;SDS011;68362;45.970;12.646;2023-06-14T04:40:49;6.97;;;5.03;;
78960;SDS011;68362;45.970;12.646;2023-06-14T04:41:54;5.38;;;4.50;;
78960;SDS011;68362;45.970;12.646;2023-06-14T04:42:58;9.95;;;5.70;;
78960;SDS011;68362;45.970;12.646;2023-06-14T04:44:00;5.45;;;4.75;;
78960;SDS011;68362;45.970;12.646;2023-06-14T04:45:04;8.20;;;4.90;;
78960;SDS011;68362;45.970;12.646;2023-06-14T04:46:07;7.43;;;5.30;;
78960;SDS011;68362;45.970;12.646;2023-06-14T04:47:13;7.22;;;4.75;;
78960;SDS011;68362;45.970;12.646;2023-06-14T04:48:16;6.15;;;5.40;;
78960;SDS011;68362;45.970;12.646;2023-06-14T04:49:22;5.03;;;4.53;;
78960;SDS011;68362;45.970;12.646;2023-06-14T04:50:28;7.30;;;5.15;;
78960;SDS011;68362;45.970;12.646;2023-06-14T04:51:31;7.63;;;5.78;;
78960;SDS011;68362;45.970;12.646;2023-06-14T04:52:35;6.60;;;4.75;;
78960;SDS011;68362;45.970;12.646;2023-06-14T04:53:37;6.93;;;5.22;;
78960;SDS011;68362;45.970;12.646;2023-06-14T04:54:39;5.32;;;4.50;;
78960;SDS011;68362;45.970;12.646;2023-06-14T04:55:45;6.05;;;5.45;;
78960;SDS011;68362;45.970;12.646;2023-06-14T04:56:47;5.72;;;5.07;;
78960;SDS011;68362;45.970;12.646;2023-06-14T04:57:49;7.10;;;5.78;;
78960;SDS011;68362;45.970;12.646;2023-06-14T04:58:55;6.95;;;6.07;;
78960;SDS011;68362;45.970;12.646;2023-06-14T04:59:58;6.68;;;5.25;;
78960;SDS011;68362;45.970;12.646;2023-06-14T05:01:02;7.97;;;5.15;;
78960;SDS011;68362;45.970;12.646;2023-06-14T05:02:05;7.55;;;5.38;;
78960;SDS011;68362;45.970;12.646;2023-06-14T05:03:09;6.22;;;5.45;;
78960;SDS011;68362;45.970;12.646;2023-06-14T05:04:18;6.18;;;5.57;;
78960;SDS011;68362;45.970;12.646;2023-06-14T05:05:20;7.00;;;4.93;;
78960;SDS011;68362;45.970;12.646;2023-06-14T05:06:22;7.88;;;5.97;;
78960;SDS011;68362;45.970;12.646;2023-06-14T05:07:25;6.65;;;5.68;;
78960;SDS011;68362;45.970;12.646;2023-06-14T05:08:27;10.15;;;6.22;;
78960;SDS011;68362;45.970;12.646;2023-06-14T05:09:29;8.60;;;5.07;;
78960;SDS011;68362;45.970;12.646;2023-06-14T05:10:31;6.55;;;5.45;;
78960;SDS011;68362;45.970;12.646;2023-06-14T05:11:33;6.13;;;5.53;;
78960;SDS011;68362;45.970;12.646;2023-06-14T05:12:35;6.55;;;5.80;;
78960;SDS011;68362;45.970;12.646;2023-06-14T05:13:37;12.85;;;5.43;;
78960;SDS011;68362;45.970;12.646;2023-06-14T05:14:39;8.20;;;5.15;;
78960;SDS011;68362;45.970;12.646;2023-06-14T05:15:42;7.50;;;5.53;;
78960;SDS011;68362;45.970;12.646;2023-06-14T05:16:44;7.03;;;5.28;;
78960;SDS011;68362;45.970;12.646;2023-06-14T05:17:46;10.07;;;5.68;;
78960;SDS011;68362;45.970;12.646;2023-06-14T05:18:55;6.75;;;5.72;;
78960;SDS011;68362;45.970;12.646;2023-06-14T05:19:57;7.22;;;5.40;;
78960;SDS011;68362;45.970;12.646;2023-06-14T05:20:59;7.90;;;5.22;;
78960;SDS011;68362;45.970;12.646;2023-06-14T05:22:01;8.07;;;6.43;;
78960;SDS011;68362;45.970;12.646;2023-06-14T05:24:07;10.70;;;5.60;;
78960;SDS011;68362;45.970;12.646;2023-06-14T05:25:10;8.30;;;5.93;;
78960;SDS011;68362;45.970;12.646;2023-06-14T05:26:13;7.63;;;5.90;;
78960;SDS011;68362;45.970;12.646;2023-06-14T05:27:16;9.10;;;4.78;;
78960;SDS011;68362;45.970;12.646;2023-06-14T05:28:18;6.95;;;5.72;;
78960;SDS011;68362;45.970;12.646;2023-06-14T05:29:20;6.85;;;6.15;;
78960;SDS011;68362;45.970;12.646;2023-06-14T05:30:22;7.28;;;5.75;;
78960;SDS011;68362;45.970;12.646;2023-06-14T05:31:25;6.13;;;5.50;;
78960;SDS011;68362;45.970;12.646;2023-06-14T05:32:28;6.75;;;5.50;;
78960;SDS011;68362;45.970;12.646;2023-06-14T05:33:30;5.70;;;4.80;;
78960;SDS011;68362;45.970;12.646;2023-06-14T05:34:32;9.00;;;5.53;;
78960;SDS011;68362;45.970;12.646;2023-06-14T05:35:34;8.05;;;5.38;;
78960;SDS011;68362;45.970;12.646;2023-06-14T05:36:37;8.85;;;5.05;;
78960;SDS011;68362;45.970;12.646;2023-06-14T05:37:39;6.20;;;4.57;;
78960;SDS011;68362;45.970;12.646;2023-06-14T05:38:41;7.13;;;5.53;;
78960;SDS011;68362;45.970;12.646;2023-06-14T05:39:43;7.55;;;5.20;;
78960;SDS011;68362;45.970;12.646;2023-06-14T05:40:45;9.52;;;5.82;;
78960;SDS011;68362;45.970;12.646;2023-06-14T05:41:47;7.57;;;5.45;;
78960;SDS011;68362;45.970;12.646;2023-06-14T05:42:51;7.47;;;4.22;;
78960;SDS011;68362;45.970;12.646;2023-06-14T05:43:54;7.45;;;5.38;;
78960;SDS011;68362;45.970;12.646;2023-06-14T05:44:58;7.75;;;5.30;;
78960;SDS011;68362;45.970;12.646;2023-06-14T05:46:00;5.93;;;4.97;;
78960;SDS011;68362;45.970;12.646;2023-06-14T05:47:02;11.90;;;7.40;;
78960;SDS011;68362;45.970;12.646;2023-06-14T05:48:04;8.63;;;4.88;;
78960;SDS011;68362;45.970;12.646;2023-06-14T05:49:07;7.60;;;5.00;;
78960;SDS011;68362;45.970;12.646;2023-06-14T05:50:09;7.15;;;4.85;;
78960;SDS011;68362;45.970;12.646;2023-06-14T05:51:11;5.35;;;4.82;;
78960;SDS011;68362;45.970;12.646;2023-06-14T05:52:13;6.45;;;4.70;;
78960;SDS011;68362;45.970;12.646;2023-06-14T05:53:15;5.72;;;4.30;;
78960;SDS011;68362;45.970;12.646;2023-06-14T05:54:17;7.82;;;4.65;;
78960;SDS011;68362;45.970;12.646;2023-06-14T05:55:20;5.45;;;4.78;;
78960;SDS011;68362;45.970;12.646;2023-06-14T05:56:22;5.38;;;4.85;;
78960;SDS011;68362;45.970;12.646;2023-06-14T05:57:24;6.40;;;4.50;;
78960;SDS011;68362;45.970;12.646;2023-06-14T05:58:26;6.18;;;4.35;;
78960;SDS011;68362;45.970;12.646;2023-06-14T05:59:28;5.15;;;3.85;;
78960;SDS011;68362;45.970;12.646;2023-06-14T06:00:30;6.50;;;3.97;;
78960;SDS011;68362;45.970;12.646;2023-06-14T06:01:33;5.82;;;4.03;;
78960;SDS011;68362;45.970;12.646;2023-06-14T06:02:35;4.93;;;4.40;;
78960;SDS011;68362;45.970;12.646;2023-06-14T06:03:38;5.50;;;3.75;;
78960;SDS011;68362;45.970;12.646;2023-06-14T06:04:40;5.15;;;4.00;;
78960;SDS011;68362;45.970;12.646;2023-06-14T06:05:42;6.43;;;4.50;;
78960;SDS011;68362;45.970;12.646;2023-06-14T06:06:44;4.13;;;3.63;;
78960;SDS011;68362;45.970;12.646;2023-06-14T06:07:46;5.45;;;3.90;;
78960;SDS011;68362;45.970;12.646;2023-06-14T06:08:49;6.10;;;4.05;;
78960;SDS011;68362;45.970;12.646;2023-06-14T06:09:52;4.82;;;3.90;;
78960;SDS011;68362;45.970;12.646;2023-06-14T06:10:54;5.28;;;3.83;;
78960;SDS011;68362;45.970;12.646;2023-06-14T06:11:56;4.78;;;4.30;;
78960;SDS011;68362;45.970;12.646;2023-06-14T06:12:58;6.38;;;3.80;;
78960;SDS011;68362;45.970;12.646;2023-06-14T06:14:00;6.07;;;3.95;;
78960;SDS011;68362;45.970;12.646;2023-06-14T06:15:03;4.47;;;3.88;;
78960;SDS011;68362;45.970;12.646;2023-06-14T06:17:08;5.68;;;4.60;;
78960;SDS011;68362;45.970;12.646;2023-06-14T06:18:10;4.85;;;3.97;;
78960;SDS011;68362;45.970;12.646;2023-06-14T06:19:12;6.60;;;4.00;;
78960;SDS011;68362;45.970;12.646;2023-06-14T06:20:14;4.75;;;4.20;;
78960;SDS011;68362;45.970;12.646;2023-06-14T06:21:16;6.88;;;4.78;;
78960;SDS011;68362;45.970;12.646;2023-06-14T06:22:19;5.57;;;4.30;;
78960;SDS011;68362;45.970;12.646;2023-06-14T06:23:21;6.78;;;3.80;;
78960;SDS011;68362;45.970;12.646;2023-06-14T06:24:23;8.55;;;4.50;;
78960;SDS011;68362;45.970;12.646;2023-06-14T06:25:25;5.60;;;4.55;;
78960;SDS011;68362;45.970;12.646;2023-06-14T06:26:28;4.28;;;3.78;;
78960;SDS011;68362;45.970;12.646;2023-06-14T06:27:31;5.38;;;3.67;;
78960;SDS011;68362;45.970;12.646;2023-06-14T06:28:33;5.63;;;3.50;;
78960;SDS011;68362;45.970;12.646;2023-06-14T06:29:36;4.90;;;3.80;;